createdAt,value
2022-08-20T00:00:41.722Z,20.71
2022-08-20T00:05:49.464Z,20.73
2022-08-20T00:10:56.106Z,20.73
2022-08-20T00:15:59.525Z,20.78
2022-08-20T00:21:03.052Z,20.87
2022-08-20T00:26:09.768Z,20.96
2022-08-20T00:31:15.267Z,21.03
2022-08-20T00:36:19.198Z,21.08
2022-08-20T00:41:26.859Z,21.08
2022-08-20T00:46:31.662Z,21.05
2022-08-20T00:51:38.237Z,21.06
2022-08-20T00:56:44.920Z,21.02
2022-08-20T01:01:55.658Z,21.06
2022-08-20T01:06:59.597Z,21.07
2022-08-20T01:12:05.330Z,21.00
2022-08-20T01:17:11.078Z,20.97
2022-08-20T01:22:42.631Z,20.90
2022-08-20T01:27:48.047Z,20.92
2022-08-20T01:32:58.394Z,20.90
2022-08-20T01:38:01.590Z,20.93
2022-08-20T01:43:06.522Z,20.85
2022-08-20T01:48:09.849Z,20.80
2022-08-20T01:53:19.719Z,20.75
2022-08-20T01:58:24.503Z,20.74
2022-08-20T02:03:27.679Z,20.69
2022-08-20T02:08:33.286Z,20.67
2022-08-20T02:13:38.490Z,20.66
2022-08-20T02:18:41.821Z,20.68
2022-08-20T02:23:44.992Z,20.68
2022-08-20T02:28:51.685Z,20.56
2022-08-20T02:34:21.762Z,20.34
2022-08-20T02:39:17.709Z,20.19
2022-08-20T02:44:22.342Z,20.12
2022-08-20T02:49:26.124Z,19.96
2022-08-20T02:54:29.876Z,19.80
2022-08-20T02:59:34.384Z,19.74
2022-08-20T03:04:37.346Z,19.74
2022-08-20T03:09:40.823Z,19.71
2022-08-20T03:14:45.183Z,19.64
2022-08-20T03:19:48.201Z,19.56
2022-08-20T03:24:51.184Z,19.46
2022-08-20T03:29:58.414Z,19.36
2022-08-20T03:35:02.394Z,19.27
2022-08-20T03:40:10.085Z,19.19
2022-08-20T03:45:18.492Z,19.08
2022-08-20T03:50:25.801Z,18.99
2022-08-20T03:55:31.784Z,18.95
2022-08-20T04:00:39.444Z,18.97
2022-08-20T04:05:44.199Z,19.02
2022-08-20T04:10:48.614Z,19.02
2022-08-20T04:15:55.282Z,18.93
2022-08-20T04:20:58.547Z,18.83
2022-08-20T04:26:01.478Z,18.75
2022-08-20T04:31:05.841Z,18.66
2022-08-20T04:36:08.851Z,18.59
2022-08-20T04:41:23.283Z,18.52
2022-08-20T04:46:29.120Z,18.42
2022-08-20T04:51:33.425Z,18.38
2022-08-20T04:56:39.852Z,18.32
2022-08-20T05:01:44.186Z,18.32
2022-08-20T05:06:47.239Z,18.29
2022-08-20T05:11:50.505Z,18.28
2022-08-20T05:16:57.495Z,18.22
2022-08-20T05:22:00.803Z,18.21
2022-08-20T05:27:03.769Z,18.19
2022-08-20T05:32:08.189Z,18.15
2022-08-20T05:37:11.389Z,18.18
2022-08-20T05:42:14.909Z,18.18
2022-08-20T05:47:19.292Z,18.18
2022-08-20T05:52:25.171Z,18.19
2022-08-20T05:57:28.146Z,18.18
2022-08-20T06:02:49.749Z,18.19
2022-08-20T06:07:54.847Z,18.20
2022-08-20T06:13:09.025Z,18.21
2022-08-20T06:18:27.595Z,18.23
2022-08-20T06:23:54.499Z,18.27
2022-08-20T06:28:54.814Z,18.29
2022-08-20T06:34:00.253Z,18.35
2022-08-20T06:39:03.282Z,18.34
2022-08-20T06:44:07.721Z,18.32
2022-08-20T06:49:12.811Z,18.34
2022-08-20T06:54:15.767Z,18.38
2022-08-20T06:59:18.703Z,18.43
2022-08-20T07:04:23.322Z,18.48
2022-08-20T07:09:28.289Z,18.55
2022-08-20T07:14:31.393Z,18.58
2022-08-20T07:19:37.917Z,18.65
2022-08-20T07:24:48.992Z,18.75
2022-08-20T07:30:12.876Z,18.80
2022-08-20T07:35:20.599Z,18.88
2022-08-20T07:40:27.963Z,18.98
2022-08-20T07:45:31.747Z,19.10
2022-08-20T07:50:36.161Z,19.28
2022-08-20T07:55:41.558Z,19.53
2022-08-20T08:01:02.278Z,19.81
2022-08-20T08:06:29.585Z,20.03
2022-08-20T08:11:36.041Z,20.23
2022-08-20T08:16:40.009Z,20.53
2022-08-20T08:22:28.735Z,20.82
2022-08-20T08:27:34.548Z,21.15
2022-08-20T08:32:59.221Z,21.18
2022-08-20T08:38:04.538Z,21.42
2022-08-20T08:43:07.633Z,21.76
2022-08-20T08:48:16.478Z,21.84
2022-08-20T08:53:27.900Z,22.02
2022-08-20T08:58:31.989Z,22.36
2022-08-20T09:03:38.283Z,22.92
2022-08-20T09:08:46.761Z,23.34
2022-08-20T09:13:49.879Z,23.37
2022-08-20T09:18:53.325Z,23.58
2022-08-20T09:23:57.744Z,23.65
2022-08-20T09:29:00.901Z,24.45
2022-08-20T09:34:04.101Z,24.43
2022-08-20T09:39:10.004Z,24.73
2022-08-20T09:44:13.105Z,25.27
2022-08-20T09:49:16.177Z,25.84
2022-08-20T09:54:22.448Z,25.95
2022-08-20T09:59:26.806Z,25.98
2022-08-20T10:04:30.005Z,25.70
2022-08-20T10:09:35.934Z,26.03
2022-08-20T10:14:39.018Z,26.58
2022-08-20T10:19:42.074Z,26.61
2022-08-20T10:24:46.565Z,26.22
2022-08-20T10:29:55.302Z,26.67
2022-08-20T10:35:02.773Z,27.14
2022-08-20T10:40:09.422Z,27.58
2022-08-20T10:45:13.840Z,28.26
2022-08-20T10:50:20.159Z,28.40
2022-08-20T10:55:24.705Z,28.39
2022-08-20T11:00:28.019Z,28.52
2022-08-20T11:05:31.212Z,28.22
2022-08-20T11:10:36.799Z,28.34
2022-08-20T11:15:43.505Z,28.30
2022-08-20T11:20:46.701Z,28.64
2022-08-20T11:25:51.854Z,28.65
2022-08-20T11:30:55.011Z,28.08
2022-08-20T11:35:58.372Z,28.11
2022-08-20T11:41:02.878Z,27.73
2022-08-20T11:46:05.994Z,27.73
2022-08-20T11:51:09.158Z,27.62
2022-08-20T11:56:16.278Z,27.59
2022-08-20T12:01:19.821Z,27.74
2022-08-20T12:06:22.827Z,27.90
2022-08-20T12:11:27.381Z,27.78
2022-08-20T12:16:30.656Z,27.78
2022-08-20T12:21:35.087Z,28.43
2022-08-20T12:26:40.564Z,28.52
2022-08-20T12:31:44.788Z,28.49
2022-08-20T12:36:48.695Z,28.37
2022-08-20T12:41:54.262Z,28.09
2022-08-20T12:47:08.515Z,27.84
2022-08-20T12:52:11.520Z,28.21
2022-08-20T12:57:18.013Z,28.25
2022-08-20T13:02:21.004Z,27.46
2022-08-20T13:07:23.962Z,27.00
2022-08-20T13:12:28.573Z,26.87
2022-08-20T13:17:38.677Z,27.08
2022-08-20T13:22:42.666Z,26.54
2022-08-20T13:27:47.147Z,26.26
2022-08-20T13:32:50.601Z,26.57
2022-08-20T13:37:53.802Z,26.92
2022-08-20T13:42:58.660Z,27.20
2022-08-20T13:48:02.542Z,26.87
2022-08-20T13:53:07.365Z,27.12
2022-08-20T13:58:11.909Z,27.22
2022-08-20T14:03:17.763Z,26.96
2022-08-20T14:08:24.812Z,26.65
2022-08-20T14:13:29.194Z,26.78
2022-08-20T14:18:32.271Z,27.04
2022-08-20T14:23:36.856Z,27.33
2022-08-20T14:28:41.912Z,27.42
2022-08-20T14:33:45.169Z,27.08
2022-08-20T14:38:48.244Z,27.03
2022-08-20T14:43:52.549Z,27.04
2022-08-20T14:48:55.564Z,27.03
2022-08-20T14:53:58.631Z,27.06
2022-08-20T14:59:02.941Z,26.75
2022-08-20T15:04:06.236Z,26.61
2022-08-20T15:09:09.540Z,26.65
2022-08-20T15:14:15.133Z,26.84
2022-08-20T15:19:21.856Z,26.94
2022-08-20T15:24:25.485Z,27.21
2022-08-20T15:29:30.136Z,27.19
2022-08-20T15:34:34.933Z,27.13
2022-08-20T15:39:38.131Z,26.99
2022-08-20T15:44:44.014Z,27.13
2022-08-20T15:49:48.519Z,27.28
2022-08-20T15:54:54.856Z,27.39
2022-08-20T16:00:10.228Z,27.20
2022-08-20T16:05:23.661Z,27.02
2022-08-20T16:10:31.368Z,26.93
2022-08-20T16:15:40.269Z,26.91
2022-08-20T16:20:47.928Z,26.68
2022-08-20T16:26:00.948Z,26.46
2022-08-20T16:31:08.593Z,26.37
2022-08-20T16:36:27.744Z,26.49
2022-08-20T16:41:37.337Z,28.68
2022-08-20T16:46:51.425Z,29.97
2022-08-20T16:51:54.956Z,29.06
2022-08-20T16:57:02.764Z,28.10
2022-08-20T17:02:10.471Z,27.43
2022-08-20T17:07:13.784Z,27.10
2022-08-20T17:12:22.069Z,26.86
2022-08-20T17:17:28.723Z,26.74
2022-08-20T17:22:43.027Z,26.54
2022-08-20T17:27:46.501Z,26.41
2022-08-20T17:32:59.069Z,26.14
2022-08-20T17:38:04.036Z,25.72
2022-08-20T17:43:10.958Z,25.89
2022-08-20T17:48:19.298Z,25.71
2022-08-20T17:53:25.175Z,25.37
2022-08-20T17:58:38.587Z,25.19
2022-08-20T18:03:42.947Z,24.85
2022-08-20T18:08:56.828Z,24.70
2022-08-20T18:14:15.433Z,24.66
2022-08-20T18:19:36.689Z,24.57
2022-08-20T18:24:45.488Z,24.35
2022-08-20T18:29:53.555Z,24.19
2022-08-20T18:35:09.377Z,23.86
2022-08-20T18:40:24.511Z,23.52
2022-08-20T18:45:33.598Z,23.27
2022-08-20T18:50:47.988Z,23.22
2022-08-20T18:56:06.382Z,23.12
2022-08-20T19:01:13.785Z,23.01
2022-08-20T19:06:40.259Z,22.82
2022-08-20T19:11:59.014Z,22.68
2022-08-20T19:17:07.912Z,22.55
2022-08-20T19:22:17.957Z,22.36
2022-08-20T19:27:21.850Z,22.20
2022-08-20T19:32:27.388Z,22.06
2022-08-20T19:37:51.148Z,21.97
2022-08-20T19:42:55.839Z,21.87
2022-08-20T19:48:15.179Z,21.71
2022-08-20T19:53:30.010Z,21.55
2022-08-20T19:58:35.528Z,21.36
2022-08-20T20:03:39.723Z,21.21
2022-08-20T20:08:59.472Z,21.10
2022-08-20T20:14:05.376Z,20.97
2022-08-20T20:19:27.809Z,20.84
2022-08-20T20:24:43.964Z,20.73
2022-08-20T20:29:47.124Z,20.61
2022-08-20T20:34:55.597Z,20.45
2022-08-20T20:40:07.188Z,20.35
2022-08-20T20:45:22.180Z,20.28
2022-08-20T20:50:32.760Z,20.15
2022-08-20T20:55:39.914Z,20.09
2022-08-20T21:00:43.047Z,19.96
2022-08-20T21:05:46.120Z,19.77
2022-08-20T21:10:50.832Z,19.58
2022-08-20T21:15:54.136Z,19.40
2022-08-20T21:20:57.395Z,19.27
2022-08-20T21:26:02.305Z,19.15
2022-08-20T21:31:05.917Z,19.04
2022-08-20T21:36:09.455Z,18.96
2022-08-20T21:41:15.197Z,18.85
2022-08-20T21:46:24.842Z,18.75
2022-08-20T21:51:28.354Z,18.72
2022-08-20T21:56:33.926Z,18.64
2022-08-20T22:01:37.080Z,18.56
2022-08-20T22:06:40.116Z,18.50
2022-08-20T22:11:44.542Z,18.46
2022-08-20T22:16:47.574Z,18.40
2022-08-20T22:21:51.196Z,18.34
2022-08-20T22:26:55.771Z,18.23
2022-08-20T22:31:58.720Z,18.19
2022-08-20T22:37:03.837Z,18.14
2022-08-20T22:42:08.634Z,18.07
2022-08-20T22:47:13.824Z,18.03
2022-08-20T22:52:17.219Z,17.93
2022-08-20T22:57:21.638Z,17.94
2022-08-20T23:02:25.591Z,18.00
2022-08-20T23:07:28.881Z,18.01
2022-08-20T23:12:33.467Z,18.03
2022-08-20T23:17:38.057Z,17.99
2022-08-20T23:22:41.066Z,17.93
2022-08-20T23:27:48.184Z,17.89
2022-08-20T23:32:51.753Z,17.85
2022-08-20T23:37:57.376Z,17.82
2022-08-20T23:43:01.871Z,17.79
2022-08-20T23:48:05.394Z,17.76
2022-08-20T23:53:08.375Z,17.68
2022-08-20T23:58:12.732Z,17.63
